BTY017 LIMC-LIRF
Flight info
| Callsign | BTY017 |
|---|---|
| Flight time | 0h 58m |
| Altitude | 37000 |
| Route | ROBAS DCT TINKU DCT XIBIL |
| Aircraft | A321/M-SDE3FGHIRWY/LB1 |
Departure
| Time | 2026-05-07 06:56 |
|---|---|
| Airport | Milan Malpensa International Airport (LIMC) |
Arrival
| Time | 2026-05-07 07:54 |
|---|---|
| Airport | Rome–Fiumicino Leonardo da Vinci International Airport (LIRF) |
| Time | Latitude | Longitude | Altitude | Speed | Heading |
|---|---|---|---|---|---|
| 2026-05-07 06:21 | 45.62716 | 8.71628 | 756 ft | 0 kts | 349° |
| 2026-05-07 06:38 | 45.62715 | 8.71628 | 759 ft | 0 kts | 349° |
| 2026-05-07 06:46 | 45.62701 | 8.71632 | 758 ft | 4 kts | 351° |
| 2026-05-07 06:46 | 45.62674 | 8.71636 | 759 ft | 4 kts | 358° |
| 2026-05-07 06:46 | 45.62647 | 8.71635 | 759 ft | 4 kts | 14° |
| 2026-05-07 06:46 | 45.62626 | 8.71620 | 758 ft | 4 kts | 62° |
| 2026-05-07 06:47 | 45.62623 | 8.71611 | 754 ft | 1 kts | 78° |
| 2026-05-07 06:48 | 45.62625 | 8.71628 | 758 ft | 7 kts | 78° |
| 2026-05-07 06:49 | 45.62640 | 8.71731 | 759 ft | 11 kts | 78° |
| 2026-05-07 06:49 | 45.62654 | 8.71836 | 759 ft | 10 kts | 79° |
| 2026-05-07 06:49 | 45.62665 | 8.71933 | 758 ft | 10 kts | 80° |
| 2026-05-07 06:49 | 45.62676 | 8.72022 | 759 ft | 9 kts | 80° |
| 2026-05-07 06:50 | 45.62678 | 8.72101 | 757 ft | 7 kts | 109° |
| 2026-05-07 06:50 | 45.62641 | 8.72143 | 755 ft | 7 kts | 160° |
| 2026-05-07 06:50 | 45.62590 | 8.72159 | 756 ft | 9 kts | 168° |
| 2026-05-07 06:50 | 45.62515 | 8.72180 | 757 ft | 13 kts | 169° |
| 2026-05-07 06:51 | 45.62410 | 8.72209 | 757 ft | 18 kts | 169° |
| 2026-05-07 06:51 | 45.62286 | 8.72243 | 757 ft | 18 kts | 169° |
| 2026-05-07 06:51 | 45.62229 | 8.72354 | 756 ft | 15 kts | 83° |
| 2026-05-07 06:51 | 45.62247 | 8.72501 | 758 ft | 15 kts | 79° |
| 2026-05-07 06:52 | 45.62267 | 8.72640 | 755 ft | 14 kts | 78° |
| 2026-05-07 06:52 | 45.62284 | 8.72767 | 755 ft | 13 kts | 79° |
| 2026-05-07 06:52 | 45.62299 | 8.72886 | 756 ft | 12 kts | 79° |
| 2026-05-07 06:52 | 45.62301 | 8.72994 | 757 ft | 10 kts | 116° |
| 2026-05-07 06:53 | 45.62244 | 8.73037 | 759 ft | 9 kts | 167° |
| 2026-05-07 06:53 | 45.62168 | 8.73059 | 758 ft | 15 kts | 170° |
| 2026-05-07 06:53 | 45.62031 | 8.73096 | 758 ft | 25 kts | 169° |
| 2026-05-07 06:53 | 45.61859 | 8.73143 | 759 ft | 25 kts | 169° |
| 2026-05-07 06:54 | 45.61728 | 8.73242 | 758 ft | 20 kts | 126° |
| 2026-05-07 06:54 | 45.61649 | 8.73406 | 754 ft | 20 kts | 124° |
| 2026-05-07 06:54 | 45.61586 | 8.73572 | 758 ft | 19 kts | 97° |
| 2026-05-07 06:54 | 45.61633 | 8.73722 | 756 ft | 17 kts | 18° |
| 2026-05-07 06:55 | 45.61691 | 8.73717 | 759 ft | 3 kts | 351° |
| 2026-05-07 06:55 | 45.61768 | 8.73699 | 756 ft | 37 kts | 350° |
| 2026-05-07 06:55 | 45.62267 | 8.73561 | 761 ft | 105 kts | 348° |
| 2026-05-07 06:55 | 45.63170 | 8.73307 | 758 ft | 157 kts | 349° |
| 2026-05-07 06:56 | 45.64352 | 8.72998 | 990 ft | 179 kts | 350° |
| 2026-05-07 06:56 | 45.65603 | 8.72806 | 1616 ft | 183 kts | 359° |
| 2026-05-07 06:56 | 45.66886 | 8.72782 | 2283 ft | 184 kts | 359° |
| 2026-05-07 06:56 | 45.68200 | 8.72743 | 2728 ft | 197 kts | 359° |
| 2026-05-07 06:57 | 45.69628 | 8.72706 | 2934 ft | 218 kts | 359° |
| 2026-05-07 06:57 | 45.71214 | 8.72629 | 3358 ft | 230 kts | 352° |
| 2026-05-07 06:57 | 45.72626 | 8.71608 | 4060 ft | 234 kts | 311° |
| 2026-05-07 06:57 | 45.73277 | 8.69528 | 4810 ft | 238 kts | 274° |
| 2026-05-07 06:58 | 45.73128 | 8.67135 | 5584 ft | 240 kts | 257° |
| 2026-05-07 06:58 | 45.72698 | 8.64853 | 6364 ft | 242 kts | 253° |
| 2026-05-07 06:58 | 45.72197 | 8.62511 | 7106 ft | 244 kts | 253° |
| 2026-05-07 06:58 | 45.71637 | 8.60243 | 7824 ft | 247 kts | 242° |
| 2026-05-07 06:59 | 45.70657 | 8.58119 | 8221 ft | 267 kts | 236° |
| 2026-05-07 06:59 | 45.69579 | 8.55849 | 8715 ft | 281 kts | 237° |
| 2026-05-07 06:59 | 45.68420 | 8.53568 | 9436 ft | 286 kts | 227° |
| 2026-05-07 06:59 | 45.66878 | 8.51752 | 10158 ft | 290 kts | 211° |
| 2026-05-07 07:00 | 45.65029 | 8.50512 | 10651 ft | 303 kts | 204° |
| 2026-05-07 07:00 | 45.63008 | 8.49317 | 10800 ft | 325 kts | 203° |
| 2026-05-07 07:00 | 45.60855 | 8.48128 | 11222 ft | 336 kts | 197° |
| 2026-05-07 07:00 | 45.58512 | 8.47783 | 11832 ft | 344 kts | 176° |
| 2026-05-07 07:01 | 45.56199 | 8.48687 | 12489 ft | 350 kts | 154° |
| 2026-05-07 07:01 | 45.54247 | 8.50772 | 13138 ft | 356 kts | 133° |
| 2026-05-07 07:01 | 45.52955 | 8.53747 | 13769 ft | 361 kts | 113° |
| 2026-05-07 07:01 | 45.52022 | 8.57092 | 14361 ft | 365 kts | 112° |
| 2026-05-07 07:02 | 45.51092 | 8.60484 | 14952 ft | 368 kts | 112° |
| 2026-05-07 07:02 | 45.50161 | 8.63898 | 15551 ft | 372 kts | 112° |
| 2026-05-07 07:02 | 45.49218 | 8.67347 | 16109 ft | 375 kts | 112° |
| 2026-05-07 07:02 | 45.48257 | 8.70830 | 16675 ft | 379 kts | 112° |
| 2026-05-07 07:03 | 45.47284 | 8.74335 | 17223 ft | 382 kts | 112° |
| 2026-05-07 07:03 | 45.46297 | 8.77872 | 17782 ft | 386 kts | 112° |
| 2026-05-07 07:03 | 45.45300 | 8.81437 | 18313 ft | 389 kts | 112° |
| 2026-05-07 07:03 | 45.44294 | 8.85030 | 18784 ft | 393 kts | 112° |
| 2026-05-07 07:04 | 45.43278 | 8.88651 | 19267 ft | 395 kts | 112° |
| 2026-05-07 07:04 | 45.42255 | 8.92295 | 19717 ft | 398 kts | 112° |
| 2026-05-07 07:04 | 45.41224 | 8.95975 | 20166 ft | 401 kts | 113° |
| 2026-05-07 07:04 | 45.40185 | 8.99673 | 20622 ft | 404 kts | 114° |
| 2026-05-07 07:05 | 45.39140 | 9.03391 | 21041 ft | 406 kts | 114° |
| 2026-05-07 07:05 | 45.38084 | 9.07138 | 21477 ft | 409 kts | 114° |
| 2026-05-07 07:05 | 45.37019 | 9.10902 | 21904 ft | 411 kts | 114° |
| 2026-05-07 07:05 | 45.35949 | 9.14680 | 22323 ft | 414 kts | 114° |
| 2026-05-07 07:06 | 45.34871 | 9.18491 | 22738 ft | 416 kts | 114° |
| 2026-05-07 07:06 | 45.33786 | 9.22322 | 23163 ft | 419 kts | 114° |
| 2026-05-07 07:06 | 45.32689 | 9.26183 | 23566 ft | 422 kts | 114° |
| 2026-05-07 07:06 | 45.31586 | 9.30060 | 23913 ft | 424 kts | 114° |
| 2026-05-07 07:07 | 45.30488 | 9.33911 | 24245 ft | 427 kts | 115° |
| 2026-05-07 07:07 | 45.29371 | 9.37828 | 24606 ft | 429 kts | 115° |
| 2026-05-07 07:07 | 45.28245 | 9.41765 | 24944 ft | 432 kts | 116° |
| 2026-05-07 07:07 | 45.27109 | 9.45730 | 25279 ft | 435 kts | 116° |
| 2026-05-07 07:08 | 45.25966 | 9.49711 | 25613 ft | 437 kts | 116° |
| 2026-05-07 07:08 | 45.24810 | 9.53720 | 25945 ft | 440 kts | 116° |
| 2026-05-07 07:08 | 45.23645 | 9.57758 | 26282 ft | 443 kts | 116° |
| 2026-05-07 07:08 | 45.22474 | 9.61821 | 26582 ft | 446 kts | 116° |
| 2026-05-07 07:09 | 45.21207 | 9.65830 | 26879 ft | 444 kts | 124° |
| 2026-05-07 07:09 | 45.19495 | 9.69435 | 27169 ft | 438 kts | 136° |
| 2026-05-07 07:09 | 45.17381 | 9.72485 | 27508 ft | 431 kts | 147° |
| 2026-05-07 07:09 | 45.14960 | 9.74928 | 27797 ft | 424 kts | 158° |
| 2026-05-07 07:10 | 45.12332 | 9.76722 | 28087 ft | 418 kts | 165° |
| 2026-05-07 07:10 | 45.09628 | 9.78289 | 28395 ft | 421 kts | 165° |
| 2026-05-07 07:10 | 45.06911 | 9.79863 | 28715 ft | 423 kts | 165° |
| 2026-05-07 07:10 | 45.04181 | 9.81445 | 29031 ft | 425 kts | 165° |
| 2026-05-07 07:11 | 45.01445 | 9.83038 | 29335 ft | 427 kts | 165° |
| 2026-05-07 07:11 | 44.98732 | 9.84616 | 29633 ft | 428 kts | 165° |
| 2026-05-07 07:11 | 44.95971 | 9.86223 | 29913 ft | 430 kts | 165° |
| 2026-05-07 07:11 | 44.93202 | 9.87835 | 30136 ft | 432 kts | 166° |
| 2026-05-07 07:12 | 44.90415 | 9.89450 | 30351 ft | 433 kts | 166° |
| 2026-05-07 07:12 | 44.87618 | 9.91066 | 30561 ft | 435 kts | 166° |
| 2026-05-07 07:12 | 44.84806 | 9.92686 | 30761 ft | 437 kts | 166° |
| 2026-05-07 07:12 | 44.81991 | 9.94306 | 30964 ft | 438 kts | 166° |
| 2026-05-07 07:13 | 44.79177 | 9.95924 | 31247 ft | 437 kts | 165° |
| 2026-05-07 07:13 | 44.76370 | 9.97541 | 31543 ft | 436 kts | 165° |
| 2026-05-07 07:13 | 44.73552 | 9.99165 | 31812 ft | 436 kts | 165° |
| 2026-05-07 07:13 | 44.70750 | 10.00778 | 32106 ft | 435 kts | 165° |
| 2026-05-07 07:14 | 44.67947 | 10.02389 | 32389 ft | 435 kts | 165° |
| 2026-05-07 07:14 | 44.65150 | 10.03993 | 32665 ft | 435 kts | 165° |
| 2026-05-07 07:14 | 44.62345 | 10.05599 | 32932 ft | 435 kts | 165° |
| 2026-05-07 07:14 | 44.59539 | 10.07204 | 33205 ft | 434 kts | 165° |
| 2026-05-07 07:15 | 44.56741 | 10.08804 | 33427 ft | 434 kts | 165° |
| 2026-05-07 07:15 | 44.53940 | 10.10401 | 33663 ft | 434 kts | 165° |
| 2026-05-07 07:15 | 44.51148 | 10.11991 | 33953 ft | 433 kts | 165° |
| 2026-05-07 07:15 | 44.48358 | 10.13578 | 34181 ft | 432 kts | 165° |
| 2026-05-07 07:16 | 44.45569 | 10.15170 | 34415 ft | 433 kts | 165° |
| 2026-05-07 07:16 | 44.42812 | 10.16744 | 34614 ft | 433 kts | 165° |
| 2026-05-07 07:16 | 44.40017 | 10.18333 | 34792 ft | 434 kts | 165° |
| 2026-05-07 07:16 | 44.37216 | 10.19919 | 34985 ft | 434 kts | 165° |
| 2026-05-07 07:17 | 44.34414 | 10.21501 | 35176 ft | 434 kts | 165° |
| 2026-05-07 07:17 | 44.31613 | 10.23082 | 35331 ft | 434 kts | 165° |
| 2026-05-07 07:17 | 44.28813 | 10.24666 | 35515 ft | 435 kts | 165° |
| 2026-05-07 07:17 | 44.26008 | 10.26254 | 35715 ft | 435 kts | 165° |
| 2026-05-07 07:18 | 44.23207 | 10.27836 | 35886 ft | 435 kts | 165° |
| 2026-05-07 07:18 | 44.20397 | 10.29417 | 36050 ft | 436 kts | 165° |
| 2026-05-07 07:18 | 44.17577 | 10.31000 | 36197 ft | 437 kts | 165° |
| 2026-05-07 07:18 | 44.14752 | 10.32589 | 36309 ft | 438 kts | 165° |
| 2026-05-07 07:19 | 44.11926 | 10.34181 | 36480 ft | 438 kts | 165° |
| 2026-05-07 07:19 | 44.09105 | 10.35767 | 36628 ft | 438 kts | 165° |
| 2026-05-07 07:19 | 44.06273 | 10.37354 | 36789 ft | 438 kts | 165° |
| 2026-05-07 07:19 | 44.03480 | 10.38919 | 36959 ft | 438 kts | 165° |
| 2026-05-07 07:20 | 43.97824 | 10.42096 | 37025 ft | 437 kts | 165° |
| 2026-05-07 07:20 | 43.92184 | 10.45249 | 37025 ft | 436 kts | 165° |
| 2026-05-07 07:21 | 43.86563 | 10.48374 | 37028 ft | 435 kts | 165° |
| 2026-05-07 07:21 | 43.80933 | 10.51498 | 37028 ft | 435 kts | 165° |
| 2026-05-07 07:22 | 43.75302 | 10.54596 | 37030 ft | 435 kts | 166° |
| 2026-05-07 07:22 | 43.69606 | 10.57344 | 36988 ft | 432 kts | 169° |
| 2026-05-07 07:23 | 43.58947 | 10.62124 | 37016 ft | 430 kts | 168° |
| 2026-05-07 07:24 | 43.53266 | 10.64749 | 37026 ft | 431 kts | 168° |
| 2026-05-07 07:24 | 43.47595 | 10.67392 | 37015 ft | 431 kts | 168° |
| 2026-05-07 07:25 | 43.39068 | 10.71332 | 37019 ft | 431 kts | 168° |
| 2026-05-07 07:26 | 43.33377 | 10.73936 | 37022 ft | 431 kts | 168° |
| 2026-05-07 07:26 | 43.27685 | 10.76548 | 36993 ft | 431 kts | 169° |
| 2026-05-07 07:27 | 43.21994 | 10.79161 | 37005 ft | 431 kts | 169° |
| 2026-05-07 07:27 | 43.16297 | 10.81777 | 36998 ft | 433 kts | 168° |
| 2026-05-07 07:28 | 43.10579 | 10.84385 | 36980 ft | 433 kts | 169° |
| 2026-05-07 07:28 | 43.04876 | 10.86973 | 35963 ft | 435 kts | 169° |
| 2026-05-07 07:28 | 43.02012 | 10.88278 | 34636 ft | 433 kts | 169° |
| 2026-05-07 07:29 | 42.99173 | 10.89574 | 33364 ft | 427 kts | 169° |
| 2026-05-07 07:29 | 42.96354 | 10.90856 | 31714 ft | 427 kts | 169° |
| 2026-05-07 07:29 | 42.93535 | 10.92133 | 30371 ft | 424 kts | 169° |
| 2026-05-07 07:29 | 42.90789 | 10.93385 | 29902 ft | 409 kts | 169° |
| 2026-05-07 07:30 | 42.88125 | 10.94603 | 29482 ft | 400 kts | 169° |
| 2026-05-07 07:30 | 42.85510 | 10.95789 | 28990 ft | 393 kts | 169° |
| 2026-05-07 07:30 | 42.82942 | 10.97026 | 28505 ft | 391 kts | 163° |
| 2026-05-07 07:30 | 42.80557 | 10.98847 | 27991 ft | 397 kts | 152° |
| 2026-05-07 07:31 | 42.78476 | 11.01368 | 27459 ft | 404 kts | 139° |
| 2026-05-07 07:31 | 42.76813 | 11.04471 | 26929 ft | 408 kts | 129° |
| 2026-05-07 07:31 | 42.75312 | 11.07715 | 26399 ft | 403 kts | 129° |
| 2026-05-07 07:31 | 42.73818 | 11.10914 | 25892 ft | 398 kts | 129° |
| 2026-05-07 07:32 | 42.72335 | 11.14067 | 25388 ft | 394 kts | 130° |
| 2026-05-07 07:32 | 42.70855 | 11.17185 | 24901 ft | 391 kts | 130° |
| 2026-05-07 07:32 | 42.69382 | 11.20273 | 24417 ft | 388 kts | 130° |
| 2026-05-07 07:32 | 42.67921 | 11.23336 | 23919 ft | 386 kts | 130° |
| 2026-05-07 07:33 | 42.66468 | 11.26385 | 23380 ft | 383 kts | 129° |
| 2026-05-07 07:33 | 42.65032 | 11.29408 | 22868 ft | 378 kts | 129° |
| 2026-05-07 07:33 | 42.63610 | 11.32397 | 22371 ft | 374 kts | 129° |
| 2026-05-07 07:33 | 42.62204 | 11.35343 | 21883 ft | 370 kts | 129° |
| 2026-05-07 07:34 | 42.60810 | 11.38269 | 21408 ft | 367 kts | 129° |
| 2026-05-07 07:34 | 42.59431 | 11.41171 | 20913 ft | 365 kts | 128° |
| 2026-05-07 07:34 | 42.58056 | 11.44059 | 20412 ft | 363 kts | 128° |
| 2026-05-07 07:34 | 42.56687 | 11.46925 | 19924 ft | 361 kts | 128° |
| 2026-05-07 07:35 | 42.55183 | 11.49583 | 19610 ft | 344 kts | 140° |
| 2026-05-07 07:35 | 42.53432 | 11.51621 | 19058 ft | 323 kts | 153° |
| 2026-05-07 07:35 | 42.51478 | 11.53034 | 18594 ft | 318 kts | 164° |
| 2026-05-07 07:35 | 42.49393 | 11.54017 | 18128 ft | 318 kts | 166° |
| 2026-05-07 07:36 | 42.47305 | 11.54988 | 17692 ft | 317 kts | 166° |
| 2026-05-07 07:36 | 42.45246 | 11.55954 | 17276 ft | 317 kts | 166° |
| 2026-05-07 07:36 | 42.43180 | 11.56927 | 17149 ft | 314 kts | 166° |
| 2026-05-07 07:36 | 42.41115 | 11.57900 | 17046 ft | 314 kts | 166° |
| 2026-05-07 07:37 | 42.39051 | 11.58872 | 16804 ft | 314 kts | 166° |
| 2026-05-07 07:37 | 42.37000 | 11.59838 | 16490 ft | 308 kts | 166° |
| 2026-05-07 07:37 | 42.35044 | 11.60764 | 16194 ft | 289 kts | 166° |
| 2026-05-07 07:37 | 42.33180 | 11.61645 | 15817 ft | 283 kts | 167° |
| 2026-05-07 07:38 | 42.31320 | 11.62509 | 15509 ft | 283 kts | 167° |
| 2026-05-07 07:38 | 42.29461 | 11.63370 | 15390 ft | 283 kts | 167° |
| 2026-05-07 07:38 | 42.27612 | 11.64286 | 15222 ft | 285 kts | 160° |
| 2026-05-07 07:38 | 42.26040 | 11.65893 | 14968 ft | 287 kts | 136° |
| 2026-05-07 07:39 | 42.25067 | 11.68255 | 14717 ft | 290 kts | 110° |
| 2026-05-07 07:39 | 42.24798 | 11.70938 | 14478 ft | 288 kts | 97° |
| 2026-05-07 07:39 | 42.24654 | 11.73631 | 14268 ft | 287 kts | 97° |
| 2026-05-07 07:39 | 42.24780 | 11.76308 | 14046 ft | 289 kts | 75° |
| 2026-05-07 07:40 | 42.25744 | 11.78649 | 13804 ft | 286 kts | 46° |
| 2026-05-07 07:40 | 42.27347 | 11.80140 | 13543 ft | 278 kts | 17° |
| 2026-05-07 07:40 | 42.29202 | 11.80594 | 13247 ft | 268 kts | 358° |
| 2026-05-07 07:40 | 42.31031 | 11.81083 | 12722 ft | 273 kts | 21° |
| 2026-05-07 07:41 | 42.32540 | 11.82641 | 12315 ft | 276 kts | 47° |
| 2026-05-07 07:41 | 42.33540 | 11.84844 | 11922 ft | 276 kts | 68° |
| 2026-05-07 07:41 | 42.34119 | 11.87303 | 11525 ft | 273 kts | 73° |
| 2026-05-07 07:41 | 42.34647 | 11.89755 | 11098 ft | 270 kts | 80° |
| 2026-05-07 07:42 | 42.34538 | 11.92225 | 10689 ft | 262 kts | 111° |
| 2026-05-07 07:42 | 42.33590 | 11.94254 | 10319 ft | 253 kts | 141° |
| 2026-05-07 07:42 | 42.32112 | 11.95397 | 9967 ft | 243 kts | 166° |
| 2026-05-07 07:42 | 42.30503 | 11.96081 | 9611 ft | 242 kts | 167° |
| 2026-05-07 07:43 | 42.28903 | 11.96761 | 9256 ft | 240 kts | 166° |
| 2026-05-07 07:43 | 42.27342 | 11.97427 | 8908 ft | 230 kts | 166° |
| 2026-05-07 07:43 | 42.25824 | 11.98075 | 8523 ft | 227 kts | 166° |
| 2026-05-07 07:43 | 42.24323 | 11.98711 | 8141 ft | 226 kts | 166° |
| 2026-05-07 07:44 | 42.22824 | 11.99347 | 7762 ft | 225 kts | 166° |
| 2026-05-07 07:44 | 42.21340 | 11.99978 | 7391 ft | 223 kts | 166° |
| 2026-05-07 07:44 | 42.19861 | 12.00606 | 7017 ft | 222 kts | 166° |
| 2026-05-07 07:44 | 42.18411 | 12.01224 | 6676 ft | 221 kts | 166° |
| 2026-05-07 07:45 | 42.16956 | 12.01844 | 6306 ft | 216 kts | 166° |
| 2026-05-07 07:45 | 42.15537 | 12.02452 | 5956 ft | 207 kts | 166° |
| 2026-05-07 07:45 | 42.14178 | 12.03033 | 5620 ft | 202 kts | 166° |
| 2026-05-07 07:45 | 42.12876 | 12.03593 | 5283 ft | 197 kts | 165° |
| 2026-05-07 07:46 | 42.11665 | 12.04443 | 4958 ft | 198 kts | 146° |
| 2026-05-07 07:46 | 42.10662 | 12.05741 | 4624 ft | 201 kts | 134° |
| 2026-05-07 07:46 | 42.09719 | 12.07130 | 4290 ft | 200 kts | 134° |
| 2026-05-07 07:46 | 42.08784 | 12.08494 | 3956 ft | 198 kts | 134° |
| 2026-05-07 07:47 | 42.07858 | 12.09845 | 3634 ft | 194 kts | 134° |
| 2026-05-07 07:47 | 42.06946 | 12.11177 | 3317 ft | 192 kts | 134° |
| 2026-05-07 07:47 | 42.06054 | 12.12484 | 2989 ft | 187 kts | 135° |
| 2026-05-07 07:47 | 42.05184 | 12.13757 | 2908 ft | 185 kts | 134° |
| 2026-05-07 07:48 | 42.04327 | 12.15013 | 2861 ft | 176 kts | 135° |
| 2026-05-07 07:48 | 42.03529 | 12.16182 | 2830 ft | 170 kts | 135° |
| 2026-05-07 07:48 | 42.02726 | 12.17353 | 2795 ft | 171 kts | 134° |
| 2026-05-07 07:48 | 42.01890 | 12.18498 | 2748 ft | 171 kts | 142° |
| 2026-05-07 07:49 | 42.00875 | 12.19309 | 2615 ft | 169 kts | 159° |
| 2026-05-07 07:49 | 41.99760 | 12.19796 | 2535 ft | 168 kts | 165° |
| 2026-05-07 07:49 | 41.98652 | 12.20252 | 2509 ft | 164 kts | 164° |
| 2026-05-07 07:49 | 41.97581 | 12.20699 | 2508 ft | 160 kts | 164° |
| 2026-05-07 07:50 | 41.96534 | 12.21138 | 2410 ft | 151 kts | 163° |
| 2026-05-07 07:50 | 41.95559 | 12.21548 | 2251 ft | 144 kts | 163° |
| 2026-05-07 07:50 | 41.94793 | 12.21869 | 2113 ft | 141 kts | 163° |
| 2026-05-07 07:50 | 41.93867 | 12.22258 | 1939 ft | 139 kts | 163° |
| 2026-05-07 07:51 | 41.92952 | 12.22643 | 1750 ft | 137 kts | 163° |
| 2026-05-07 07:51 | 41.92050 | 12.23021 | 1571 ft | 135 kts | 163° |
| 2026-05-07 07:51 | 41.91156 | 12.23397 | 1394 ft | 134 kts | 163° |
| 2026-05-07 07:51 | 41.90270 | 12.23769 | 1205 ft | 133 kts | 163° |
| 2026-05-07 07:52 | 41.89380 | 12.24142 | 1031 ft | 135 kts | 162° |
| 2026-05-07 07:52 | 41.88483 | 12.24520 | 887 ft | 134 kts | 163° |
| 2026-05-07 07:52 | 41.87594 | 12.24893 | 728 ft | 135 kts | 162° |
| 2026-05-07 07:52 | 41.87009 | 12.25130 | 547 ft | 135 kts | 163° |
| 2026-05-07 07:53 | 41.86109 | 12.25518 | 331 ft | 136 kts | 160° |
| 2026-05-07 07:53 | 41.85203 | 12.25898 | 201 ft | 136 kts | 163° |
| 2026-05-07 07:53 | 41.84305 | 12.26274 | 46 ft | 134 kts | 162° |
| 2026-05-07 07:53 | 41.83451 | 12.26621 | 22 ft | 120 kts | 162° |
| 2026-05-07 07:54 | 41.82774 | 12.26912 | 14 ft | 79 kts | 163° |
| 2026-05-07 07:54 | 41.82380 | 12.27074 | 10 ft | 50 kts | 159° |
| 2026-05-07 07:54 | 41.82186 | 12.27137 | 10 ft | 22 kts | 175° |
| 2026-05-07 07:54 | 41.82039 | 12.27131 | 12 ft | 20 kts | 189° |
| 2026-05-07 07:55 | 41.81920 | 12.27098 | 11 ft | 16 kts | 192° |
| 2026-05-07 07:55 | 41.81816 | 12.27069 | 11 ft | 15 kts | 192° |
| 2026-05-07 07:55 | 41.81716 | 12.27049 | 12 ft | 14 kts | 176° |
| 2026-05-07 07:55 | 41.81621 | 12.27073 | 14 ft | 14 kts | 162° |
| 2026-05-07 07:56 | 41.81530 | 12.27112 | 12 ft | 14 kts | 162° |
| 2026-05-07 07:56 | 41.81439 | 12.27150 | 12 ft | 14 kts | 166° |
| 2026-05-07 07:56 | 41.81349 | 12.27187 | 12 ft | 13 kts | 162° |
| 2026-05-07 07:56 | 41.81259 | 12.27224 | 12 ft | 14 kts | 163° |
| 2026-05-07 07:57 | 41.81169 | 12.27261 | 13 ft | 14 kts | 162° |
| 2026-05-07 07:57 | 41.81079 | 12.27298 | 12 ft | 14 kts | 163° |
| 2026-05-07 07:57 | 41.80988 | 12.27336 | 13 ft | 14 kts | 163° |
| 2026-05-07 07:57 | 41.80894 | 12.27347 | 13 ft | 14 kts | 190° |
| 2026-05-07 07:58 | 41.80800 | 12.27324 | 13 ft | 14 kts | 190° |
| 2026-05-07 07:58 | 41.80706 | 12.27298 | 13 ft | 14 kts | 199° |
| 2026-05-07 07:58 | 41.80650 | 12.27203 | 13 ft | 13 kts | 251° |
| 2026-05-07 07:58 | 41.80621 | 12.27088 | 13 ft | 13 kts | 251° |
| 2026-05-07 07:59 | 41.80589 | 12.26983 | 13 ft | 12 kts | 247° |
| 2026-05-07 07:59 | 41.80556 | 12.26880 | 13 ft | 12 kts | 247° |
| 2026-05-07 07:59 | 41.80526 | 12.26783 | 14 ft | 10 kts | 252° |
| 2026-05-07 07:59 | 41.80510 | 12.26694 | 16 ft | 9 kts | 250° |
| 2026-05-07 08:00 | 41.80490 | 12.26622 | 15 ft | 8 kts | 250° |
| 2026-05-07 08:00 | 41.80472 | 12.26555 | 17 ft | 7 kts | 250° |
| 2026-05-07 08:00 | 41.80455 | 12.26492 | 16 ft | 7 kts | 250° |
| 2026-05-07 08:00 | 41.80427 | 12.26406 | 15 ft | 16 kts | 233° |
| 2026-05-07 08:01 | 41.80309 | 12.26390 | 14 ft | 19 kts | 160° |
| 2026-05-07 08:01 | 41.80184 | 12.26388 | 14 ft | 18 kts | 204° |
| 2026-05-07 08:01 | 41.80068 | 12.26315 | 14 ft | 18 kts | 205° |
| 2026-05-07 08:01 | 41.79992 | 12.26267 | 14 ft | 18 kts | 205° |
| 2026-05-07 08:02 | 41.79939 | 12.26235 | 14 ft | 18 kts | 204° |
| 2026-05-07 08:02 | 41.79825 | 12.26165 | 14 ft | 18 kts | 205° |
| 2026-05-07 08:02 | 41.79772 | 12.26053 | 14 ft | 15 kts | 284° |
| 2026-05-07 08:02 | 41.79814 | 12.25925 | 16 ft | 15 kts | 296° |
| 2026-05-07 08:03 | 41.79843 | 12.25847 | 14 ft | 12 kts | 297° |
| 2026-05-07 08:03 | 41.79828 | 12.25789 | 15 ft | 6 kts | 220° |
| 2026-05-07 08:03 | 41.79793 | 12.25761 | 14 ft | 6 kts | 205° |
| 2026-05-07 08:03 | 41.79759 | 12.25740 | 14 ft | 5 kts | 208° |
| 2026-05-07 08:04 | 41.79751 | 12.25708 | 14 ft | 3 kts | 269° |
| 2026-05-07 08:04 | 41.79757 | 12.25684 | 14 ft | 2 kts | 294° |
| 2026-05-07 08:04 | 41.79763 | 12.25668 | 14 ft | 2 kts | 294° |
| 2026-05-07 08:04 | 41.79763 | 12.25667 | 14 ft | 0 kts | 294° |